Time;durP1;ratioP1;P1;durP2;ratioP2;P2;SDS_P1;SDS_P2;PMS_P1;PMS_P2;Temp;Humidity;BMP_temperature;BMP_pressure;BME280_temperature;BME280_humidity;BME280_pressure;Samples;Min_cycle;Max_cycle;Signal;HPM_P1;HPM_P2
2022/01/25 00:26:22;;;;;;;49.05;6.90;;;;;;;;;;5019426;28;20276;-63
2022/01/25 00:29:05;;;;;;;49.15;6.13;;;;;;;;;;5019129;28;20053;-63
2022/01/25 00:31:34;;;;;;;44.15;6.30;;;;;;;;;;5020413;28;20128;-63
2022/01/25 00:34:07;;;;;;;48.38;6.05;;;;;;;;;;5003648;28;20053;-63
2022/01/25 00:36:34;;;;;;;50.03;7.28;;;;;;;;;;5019686;28;20041;-63
2022/01/25 00:39:01;;;;;;;51.72;5.65;;;;;;;;;;5022681;28;20104;-63
2022/01/25 00:41:28;;;;;;;46.55;6.60;;;;;;;;;;5023894;28;20097;-63
2022/01/25 00:43:55;;;;;;;53.67;6.22;;;;;;;;;;5023431;28;20480;-63
2022/01/25 00:46:22;;;;;;;49.05;6.38;;;;;;;;;;5023892;28;20455;-63
2022/01/25 00:48:53;;;;;;;65.68;6.75;;;;;;;;;;5023908;28;20100;-63
2022/01/25 00:54:00;;;;;;;50.83;7.45;;;;;;;;;;5020719;28;20073;-63
2022/01/25 00:56:29;;;;;;;57.30;6.25;;;;;;;;;;5023653;28;20092;-63
2022/01/25 00:58:56;;;;;;;53.50;6.60;;;;;;;;;;5020487;28;20152;-63
2022/01/25 01:01:23;;;;;;;50.77;6.40;;;;;;;;;;5009376;28;20176;-63
2022/01/25 01:03:50;;;;;;;;;;;;;;;;;;5028251;28;20057;-63
2022/01/25 01:06:23;;;;;;;45.97;5.80;;;;;;;;;;5024718;28;20027;-63
2022/01/25 01:08:50;;;;;;;58.03;6.47;;;;;;;;;;5023433;28;20061;-63
2022/01/25 01:11:23;;;;;;;61.15;6.72;;;;;;;;;;5031444;28;20668;-63
2022/01/25 01:14:17;;;;;;;62.05;7.82;;;;;;;;;;5025985;28;20140;-63
2022/01/25 01:30:47;;;;;;;52.83;6.72;;;;;;;;;;5023299;28;20132;-63
2022/01/25 01:33:56;;;;;;;50.22;6.45;;;;;;;;;;5027736;28;20060;-63
2022/01/25 01:39:40;;;;;;;51.08;5.72;;;;;;;;;;5024408;28;20140;-63
2022/01/25 01:42:47;;;;;;;69.45;6.55;;;;;;;;;;5032656;28;20444;-63
2022/01/25 01:47:45;;;;;;;52.87;6.43;;;;;;;;;;5045693;28;20575;-63
2022/01/25 01:50:15;;;;;;;65.65;7.38;;;;;;;;;;5044620;28;20140;-63
2022/01/25 01:52:49;;;;;;;73.85;6.68;;;;;;;;;;5044736;28;20049;-63
2022/01/25 01:55:16;;;;;;;69.28;6.35;;;;;;;;;;5047494;28;20086;-63
2022/01/25 01:57:42;;;;;;;58.78;6.55;;;;;;;;;;5043415;28;20489;-63
2022/01/25 02:00:09;;;;;;;52.33;7.75;;;;;;;;;;5042978;28;20427;-63
2022/01/25 02:02:35;;;;;;;67.00;6.82;;;;;;;;;;5046738;28;20072;-63
2022/01/25 02:05:02;;;;;;;51.63;6.07;;;;;;;;;;5041602;28;20053;-63
2022/01/25 02:07:35;;;;;;;61.17;7.07;;;;;;;;;;5043956;28;20451;-63
2022/01/25 02:10:03;;;;;;;57.40;6.38;;;;;;;;;;5046345;28;20136;-63
2022/01/25 02:12:30;;;;;;;61.10;6.85;;;;;;;;;;5041686;28;20132;-63
2022/01/25 02:15:04;;;;;;;62.70;6.75;;;;;;;;;;5043321;28;20140;-63
2022/01/25 02:22:54;;;;;;;60.22;6.38;;;;;;;;;;5039799;28;20080;-64
2022/01/25 02:25:21;;;;;;;65.43;6.28;;;;;;;;;;5042869;28;20068;-63
2022/01/25 02:27:47;;;;;;;58.97;6.00;;;;;;;;;;5040595;28;20409;-64
2022/01/25 02:30:20;;;;;;;49.97;5.78;;;;;;;;;;5041793;28;20051;-64
2022/01/25 02:32:46;;;;;;;61.97;6.63;;;;;;;;;;5042460;28;20143;-63
2022/01/25 02:35:13;;;;;;;59.45;6.28;;;;;;;;;;5040287;28;20140;-64
2022/01/25 02:37:46;;;;;;;73.28;6.70;;;;;;;;;;5043364;28;20305;-63
2022/01/25 02:40:12;;;;;;;61.35;8.13;;;;;;;;;;5042902;28;20045;-63
2022/01/25 02:42:39;;;;;;;60.25;6.93;;;;;;;;;;5023635;28;20156;-64
2022/01/25 02:45:10;;;;;;;68.00;7.78;;;;;;;;;;5016737;28;20064;-64
2022/01/25 02:50:22;;;;;;;54.83;6.05;;;;;;;;;;5020750;28;20160;-64
2022/01/25 02:52:48;;;;;;;54.55;6.10;;;;;;;;;;5022853;28;20135;-64
2022/01/25 02:55:17;;;;;;;52.05;6.95;;;;;;;;;;5021465;28;20080;-64
2022/01/25 02:57:45;;;;;;;74.78;7.10;;;;;;;;;;5025269;28;20077;-63
2022/01/25 03:00:12;;;;;;;58.05;7.18;;;;;;;;;;5023390;28;20049;-64
2022/01/25 03:02:38;;;;;;;65.15;6.32;;;;;;;;;;5020507;28;20557;-64
2022/01/25 03:05:05;;;;;;;60.53;7.32;;;;;;;;;;5025013;28;20049;-64
2022/01/25 03:07:33;;;;;;;48.97;6.15;;;;;;;;;;5024399;28;20099;-64
2022/01/25 03:10:00;;;;;;;50.08;6.20;;;;;;;;;;5023041;28;20056;-64
2022/01/25 03:12:41;;;;;;;55.38;6.00;;;;;;;;;;5024082;28;20130;-64
2022/01/25 03:17:52;;;;;;;40.75;4.80;;;;;;;;;;5022890;28;20963;-64
2022/01/25 03:20:23;;;;;;;45.97;5.30;;;;;;;;;;5021043;28;20136;-63
2022/01/25 03:22:58;;;;;;;55.05;5.57;;;;;;;;;;5021206;28;20140;-64
2022/01/25 03:25:26;;;;;;;50.00;4.88;;;;;;;;;;5021718;28;20152;-65
2022/01/25 03:27:53;;;;;;;58.25;6.13;;;;;;;;;;5023618;28;20078;-64
2022/01/25 03:30:19;;;;;;;35.72;5.00;;;;;;;;;;5023230;28;20412;-64
2022/01/25 03:32:46;;;;;;;65.82;5.80;;;;;;;;;;5023575;28;20048;-64
2022/01/25 03:35:13;;;;;;;43.78;5.90;;;;;;;;;;5023688;28;20133;-64
2022/01/25 03:37:39;;;;;;;37.58;5.47;;;;;;;;;;5018910;28;20541;-64
2022/01/25 03:40:06;;;;;;;36.60;4.97;;;;;;;;;;5020749;28;20100;-64
2022/01/25 03:42:40;;;;;;;55.05;5.95;;;;;;;;;;5033093;28;20057;-64
2022/01/25 03:45:07;;;;;;;40.00;4.38;;;;;;;;;;5046014;28;20141;-64
2022/01/25 03:47:58;;;;;;;;;;;;;;;;;;5046869;28;20096;-64
2022/01/25 03:50:26;;;;;;;54.67;5.78;;;;;;;;;;5043049;28;20012;-64
2022/01/25 03:52:53;;;;;;;54.42;5.18;;;;;;;;;;5027978;28;20135;-64
2022/01/25 03:55:19;;;;;;;27.23;3.42;;;;;;;;;;5041692;28;20053;-64
2022/01/25 03:57:52;;;;;;;36.58;4.93;;;;;;;;;;5041560;28;20484;-63
2022/01/25 04:00:18;;;;;;;37.17;4.22;;;;;;;;;;5043591;28;20775;-64
2022/01/25 04:02:52;;;;;;;40.65;5.13;;;;;;;;;;5042160;28;20087;-64
2022/01/25 04:05:33;;;;;;;29.80;4.13;;;;;;;;;;5043711;28;20075;-64
2022/01/25 04:07:59;;;;;;;34.90;5.30;;;;;;;;;;5044163;28;20497;-63
2022/01/25 04:10:26;;;;;;;30.97;4.17;;;;;;;;;;5042700;28;20141;-64
2022/01/25 04:12:52;;;;;;;32.33;3.77;;;;;;;;;;5046411;28;20155;-64
2022/01/25 04:15:19;;;;;;;42.63;5.38;;;;;;;;;;5043784;28;20698;-64
2022/01/25 04:17:51;;;;;;;46.28;4.55;;;;;;;;;;5043219;28;20136;-64
2022/01/25 04:20:24;;;;;;;33.35;4.70;;;;;;;;;;5037153;28;20089;-64
2022/01/25 04:25:36;;;;;;;30.55;3.90;;;;;;;;;;5042558;28;20133;-64
2022/01/25 04:28:04;;;;;;;28.52;4.28;;;;;;;;;;5043475;28;20053;-63
2022/01/25 04:30:30;;;;;;;43.53;4.35;;;;;;;;;;5041535;28;20128;-64
2022/01/25 04:35:44;;;;;;;35.22;4.07;;;;;;;;;;5041626;28;20132;-64
2022/01/25 04:49:19;;;;;;;28.60;3.92;;;;;;;;;;5023711;28;20077;-64
2022/01/25 04:52:11;;;;;;;20.05;3.35;;;;;;;;;;5022357;28;20128;-64
2022/01/25 04:54:47;;;;;;;28.00;4.15;;;;;;;;;;5018081;28;20048;-63
2022/01/25 04:59:55;;;;;;;30.33;4.88;;;;;;;;;;5018651;28;20081;-63
2022/01/25 05:02:42;;;;;;;35.83;3.70;;;;;;;;;;5020573;28;20045;-63
2022/01/25 05:05:55;;;;;;;28.92;3.83;;;;;;;;;;5018022;28;20042;-64
2022/01/25 05:08:20;;;;;;;30.42;3.65;;;;;;;;;;5012318;28;20050;-63
2022/01/25 05:11:13;;;;;;;30.00;3.67;;;;;;;;;;5019353;28;20497;-64
2022/01/25 05:13:44;;;;;;;23.85;4.30;;;;;;;;;;5019400;28;20565;-64
2022/01/25 05:18:49;;;;;;;26.05;3.72;;;;;;;;;;5020478;28;20349;-63
2022/01/25 05:24:07;;;;;;;33.90;4.90;;;;;;;;;;5021885;28;20081;-64
2022/01/25 05:26:34;;;;;;;29.90;3.85;;;;;;;;;;5019453;28;20140;-64
2022/01/25 05:29:00;;;;;;;37.38;3.85;;;;;;;;;;5024046;28;20144;-63
2022/01/25 05:31:26;;;;;;;31.25;3.97;;;;;;;;;;5020760;28;20548;-63
2022/01/25 05:33:53;;;;;;;32.17;4.25;;;;;;;;;;5021132;28;20098;-63
2022/01/25 05:36:23;;;;;;;34.08;3.60;;;;;;;;;;5021791;28;20049;-63
2022/01/25 05:38:58;;;;;;;26.08;3.80;;;;;;;;;;5020498;28;20060;-63
2022/01/25 05:41:28;;;;;;;26.10;3.65;;;;;;;;;;5022336;28;20168;-64
2022/01/25 05:44:15;;;;;;;29.77;3.03;;;;;;;;;;5019138;28;20125;-63
2022/01/25 05:46:52;;;;;;;27.48;3.58;;;;;;;;;;5023800;28;20045;-63
2022/01/25 05:49:18;;;;;;;31.30;3.60;;;;;;;;;;5025168;28;20467;-63
2022/01/25 05:51:47;;;;;;;27.23;3.47;;;;;;;;;;5023645;28;20417;-63
2022/01/25 05:54:14;;;;;;;29.93;3.63;;;;;;;;;;5026537;28;20103;-63
2022/01/25 05:56:40;;;;;;;27.08;3.70;;;;;;;;;;5020823;28;20136;-64
2022/01/25 05:59:07;;;;;;;24.33;5.10;;;;;;;;;;5027060;28;20136;-63
2022/01/25 06:01:35;;;;;;;26.37;3.30;;;;;;;;;;5024822;28;20073;-63
2022/01/25 06:04:02;;;;;;;35.25;4.18;;;;;;;;;;5023694;28;20080;-64
2022/01/25 06:06:29;;;;;;;26.25;4.55;;;;;;;;;;5026767;28;20481;-63
2022/01/25 06:08:56;;;;;;;28.08;3.47;;;;;;;;;;5024950;28;20077;-63
2022/01/25 06:11:23;;;;;;;25.33;3.50;;;;;;;;;;5024605;28;20150;-64
2022/01/25 06:13:56;;;;;;;25.17;3.22;;;;;;;;;;5023214;28;20078;-63
2022/01/25 06:16:24;;;;;;;29.20;3.50;;;;;;;;;;5026107;28;20518;-64
2022/01/25 06:18:51;;;;;;;38.75;3.78;;;;;;;;;;5024441;28;20050;-63
2022/01/25 06:21:17;;;;;;;24.17;3.60;;;;;;;;;;5025963;28;20080;-63
2022/01/25 06:23:44;;;;;;;32.78;3.70;;;;;;;;;;5025824;28;20386;-64
2022/01/25 06:26:10;;;;;;;26.90;3.72;;;;;;;;;;5025148;28;20569;-63
2022/01/25 06:28:37;;;;;;;25.00;3.50;;;;;;;;;;5023185;28;20485;-63
2022/01/25 06:31:03;;;;;;;20.88;3.30;;;;;;;;;;5022901;28;20049;-63
2022/01/25 06:33:30;;;;;;;22.05;3.75;;;;;;;;;;5026465;28;20144;-63
2022/01/25 06:35:57;;;;;;;23.23;2.60;;;;;;;;;;5020407;28;20145;-64
2022/01/25 06:38:23;;;;;;;22.05;3.58;;;;;;;;;;5022362;28;20136;-63
2022/01/25 06:40:49;;;;;;;16.30;3.17;;;;;;;;;;5026243;28;20144;-64
2022/01/25 06:43:16;;;;;;;20.58;3.40;;;;;;;;;;5021628;28;20145;-63
2022/01/25 06:45:45;;;;;;;32.30;4.73;;;;;;;;;;5024445;28;20085;-64
2022/01/25 06:48:12;;;;;;;28.00;3.90;;;;;;;;;;5023670;28;20099;-63
2022/01/25 06:50:38;;;;;;;29.92;3.83;;;;;;;;;;5023893;28;20136;-63
2022/01/25 06:53:05;;;;;;;36.42;4.20;;;;;;;;;;5022156;28;20081;-64
2022/01/25 06:55:37;;;;;;;20.88;3.40;;;;;;;;;;5024709;28;20050;-63
2022/01/25 06:58:07;;;;;;;29.33;3.40;;;;;;;;;;5017899;28;20060;-63
2022/01/25 07:00:33;;;;;;;29.60;3.67;;;;;;;;;;5022894;28;20045;-63
2022/01/25 07:03:00;;;;;;;32.13;3.92;;;;;;;;;;5025543;28;20740;-63
2022/01/25 07:05:27;;;;;;;27.20;3.33;;;;;;;;;;5021040;28;20077;-63
2022/01/25 07:07:54;;;;;;;13.00;2.13;;;;;;;;;;5021154;28;20096;-64
2022/01/25 07:10:21;;;;;;;15.75;2.60;;;;;;;;;;5020625;28;20712;-64
2022/01/25 07:12:54;;;;;;;16.58;2.85;;;;;;;;;;5019378;28;20104;-64
2022/01/25 07:15:21;;;;;;;26.02;3.58;;;;;;;;;;5026951;28;20501;-63
2022/01/25 07:17:47;;;;;;;23.65;3.67;;;;;;;;;;5025431;28;20323;-64
2022/01/25 07:20:14;;;;;;;26.88;3.70;;;;;;;;;;5023335;28;20064;-64
2022/01/25 07:22:41;;;;;;;26.80;3.47;;;;;;;;;;5021910;28;20045;-63
2022/01/25 07:25:09;;;;;;;30.48;3.53;;;;;;;;;;5022549;28;20316;-63
2022/01/25 07:27:42;;;;;;;24.02;2.97;;;;;;;;;;5023268;28;20160;-63
2022/01/25 07:30:09;;;;;;;17.65;3.28;;;;;;;;;;5022404;28;20136;-63
2022/01/25 07:32:35;;;;;;;28.60;3.45;;;;;;;;;;5023806;28;20049;-63
2022/01/25 07:35:16;;;;;;;22.38;2.92;;;;;;;;;;5016996;28;20056;-64
2022/01/25 07:37:49;;;;;;;27.13;3.47;;;;;;;;;;5022179;28;20092;-63
2022/01/25 07:40:38;;;;;;;;;;;;;;;;;;5021138;28;20049;-63
2022/01/25 07:43:09;;;;;;;19.13;2.40;;;;;;;;;;5024124;28;19926;-63
2022/01/25 07:45:42;;;;;;;36.13;3.25;;;;;;;;;;5022855;28;20084;-63
2022/01/25 07:48:13;;;;;;;23.90;3.55;;;;;;;;;;5024626;28;20129;-63
2022/01/25 07:50:42;;;;;;;25.80;3.30;;;;;;;;;;5022969;28;20056;-63
2022/01/25 07:53:08;;;;;;;30.77;3.40;;;;;;;;;;5024504;28;20129;-63
2022/01/25 07:55:35;;;;;;;25.20;3.97;;;;;;;;;;5023219;28;20080;-63
2022/01/25 07:58:08;;;;;;;29.83;3.50;;;;;;;;;;5022562;28;20092;-63
2022/01/25 08:00:34;;;;;;;28.08;3.17;;;;;;;;;;5025483;28;20045;-63
2022/01/25 08:03:04;;;;;;;23.93;3.33;;;;;;;;;;5020111;28;20072;-63
2022/01/25 08:05:45;;;;;;;25.17;3.40;;;;;;;;;;5019272;28;20132;-63
2022/01/25 08:08:29;;;;;;;19.58;2.95;;;;;;;;;;5018894;28;20037;-63
2022/01/25 08:11:13;;;;;;;23.70;3.10;;;;;;;;;;5002008;28;20077;-63
2022/01/25 08:13:48;;;;;;;26.10;3.25;;;;;;;;;;5024458;28;20049;-63
2022/01/25 08:16:24;;;;;;;27.85;2.90;;;;;;;;;;5018901;28;20056;-63
2022/01/25 08:19:00;;;;;;;21.67;3.33;;;;;;;;;;5025997;28;20037;-63
2022/01/25 08:21:28;;;;;;;17.40;2.80;;;;;;;;;;5023198;28;20050;-63
2022/01/25 08:24:06;;;;;;;23.55;3.10;;;;;;;;;;5018943;28;20050;-63
2022/01/25 08:26:47;;;;;;;29.25;3.58;;;;;;;;;;5016937;28;20061;-63
2022/01/25 08:29:18;;;;;;;15.35;2.90;;;;;;;;;;5023489;28;20211;-63
2022/01/25 08:32:07;;;;;;;32.25;4.15;;;;;;;;;;4944976;29;20055;-64
2022/01/25 08:34:51;;;;;;;22.10;2.85;;;;;;;;;;4871287;29;20410;-63
2022/01/25 08:37:30;;;;;;;25.00;3.05;;;;;;;;;;4920507;29;20491;-63
2022/01/25 08:40:16;;;;;;;28.95;3.30;;;;;;;;;;4900616;29;20078;-63
2022/01/25 08:42:57;;;;;;;22.67;3.20;;;;;;;;;;4922878;28;20063;-63
2022/01/25 08:45:35;;;;;;;20.50;3.15;;;;;;;;;;4939648;28;20086;-64
2022/01/25 08:48:05;;;;;;;20.55;3.58;;;;;;;;;;4947011;28;20565;-63
2022/01/25 08:50:32;;;;;;;16.50;3.75;;;;;;;;;;4940391;28;20458;-63
2022/01/25 08:53:20;;;;;;;22.45;3.40;;;;;;;;;;4941628;28;20058;-63
2022/01/25 08:56:09;;;;;;;17.48;3.13;;;;;;;;;;4939598;28;20055;-63
2022/01/25 08:58:54;;;;;;;24.70;3.28;;;;;;;;;;4943473;28;20187;-63
2022/01/25 09:01:20;;;;;;;;;;;;;;;;;;4941606;28;20105;-63
2022/01/25 09:03:47;;;;;;;15.25;3.10;;;;;;;;;;4943143;28;20069;-64
2022/01/25 09:06:14;;;;;;;23.70;3.47;;;;;;;;;;4940974;29;20094;-63
2022/01/25 09:08:49;;;;;;;15.27;3.28;;;;;;;;;;4941489;29;20142;-63
2022/01/25 09:11:16;;;;;;;23.50;4.95;;;;;;;;;;4955301;28;20060;-63
2022/01/25 09:13:42;;;;;;;28.83;3.75;;;;;;;;;;5020627;28;20646;-63
2022/01/25 09:16:09;;;;;;;20.40;3.70;;;;;;;;;;5020208;28;20151;-63
2022/01/25 09:18:36;;;;;;;22.15;3.72;;;;;;;;;;5021194;28;20289;-63
2022/01/25 09:21:03;;;;;;;24.65;2.97;;;;;;;;;;5018492;28;20076;-63
2022/01/25 09:23:31;;;;;;;24.13;3.80;;;;;;;;;;5023800;28;20084;-63
2022/01/25 09:25:58;;;;;;;20.23;3.25;;;;;;;;;;5027473;28;20132;-63
2022/01/25 09:28:24;;;;;;;20.55;3.08;;;;;;;;;;5027950;28;20136;-63
2022/01/25 09:30:52;;;;;;;31.05;3.40;;;;;;;;;;5027376;28;20085;-63
2022/01/25 09:33:20;;;;;;;17.70;2.85;;;;;;;;;;5025298;28;20099;-63
2022/01/25 09:35:46;;;;;;;22.88;3.03;;;;;;;;;;5025054;28;20132;-63
2022/01/25 09:38:15;;;;;;;22.60;3.30;;;;;;;;;;5026493;28;20045;-63
2022/01/25 09:40:42;;;;;;;26.80;4.10;;;;;;;;;;5027328;28;20729;-63
2022/01/25 09:43:08;;;;;;;24.70;3.45;;;;;;;;;;5026522;28;20137;-63
2022/01/25 09:45:36;;;;;;;24.52;4.00;;;;;;;;;;5023434;28;20092;-63
2022/01/25 09:48:04;;;;;;;28.02;3.70;;;;;;;;;;5028365;28;20060;-63
2022/01/25 09:50:33;;;;;;;30.90;3.80;;;;;;;;;;5026203;28;20049;-63
2022/01/25 09:53:00;;;;;;;25.48;2.90;;;;;;;;;;5025849;28;20092;-63
2022/01/25 09:55:30;;;;;;;21.73;3.33;;;;;;;;;;5027393;28;20081;-63
2022/01/25 09:57:56;;;;;;;16.85;2.88;;;;;;;;;;5027579;28;20140;-63
2022/01/25 10:00:25;;;;;;;25.90;3.53;;;;;;;;;;5020897;28;20136;-63
2022/01/25 10:03:01;;;;;;;21.77;3.47;;;;;;;;;;5029351;28;20151;-63
2022/01/25 10:05:35;;;;;;;18.65;3.08;;;;;;;;;;5024421;28;20056;-63
2022/01/25 10:08:05;;;;;;;28.65;3.25;;;;;;;;;;5026038;28;20133;-63
2022/01/25 10:10:33;;;;;;;23.77;3.72;;;;;;;;;;5028334;28;20080;-64
2022/01/25 10:13:15;;;;;;;27.67;5.18;;;;;;;;;;5023777;28;20553;-63
2022/01/25 10:15:49;;;;;;;25.20;5.75;;;;;;;;;;5024035;28;20077;-63
2022/01/25 10:18:20;;;;;;;35.63;4.72;;;;;;;;;;5026694;28;20049;-63
2022/01/25 10:20:47;;;;;;;27.88;3.35;;;;;;;;;;5022518;28;20145;-63
2022/01/25 10:23:19;;;;;;;15.82;3.00;;;;;;;;;;5021763;28;20122;-63
2022/01/25 10:25:46;;;;;;;24.20;3.35;;;;;;;;;;5020247;28;20164;-63
2022/01/25 10:28:14;;;;;;;27.10;4.00;;;;;;;;;;5024693;28;20137;-63
2022/01/25 10:30:50;;;;;;;25.83;3.45;;;;;;;;;;5025521;28;20154;-63
2022/01/25 10:33:27;;;;;;;22.25;3.38;;;;;;;;;;5023002;28;20558;-63
2022/01/25 10:35:56;;;;;;;14.23;3.10;;;;;;;;;;5022452;28;20592;-63
2022/01/25 10:38:33;;;;;;;22.85;3.20;;;;;;;;;;5022726;28;20050;-63
2022/01/25 10:41:02;;;;;;;31.02;4.47;;;;;;;;;;5021910;28;20049;-63
2022/01/25 10:43:29;;;;;;;27.27;3.45;;;;;;;;;;5022327;28;20049;-63
2022/01/25 10:46:03;;;;;;;30.50;4.20;;;;;;;;;;5024987;28;20592;-64
2022/01/25 10:48:37;;;;;;;27.75;4.85;;;;;;;;;;5027165;28;20563;-63
2022/01/25 10:51:11;;;;;;;23.80;3.40;;;;;;;;;;5021668;28;20095;-63
2022/01/25 10:53:39;;;;;;;25.10;3.60;;;;;;;;;;5025897;28;20536;-63
2022/01/25 10:56:06;;;;;;;24.70;3.38;;;;;;;;;;5023115;28;20046;-63
2022/01/25 10:58:37;;;;;;;24.85;3.80;;;;;;;;;;5006394;28;20087;-63
2022/01/25 11:01:09;;;;;;;30.35;3.92;;;;;;;;;;5024687;28;20060;-63
2022/01/25 11:03:38;;;;;;;29.55;3.50;;;;;;;;;;5026025;28;20089;-63
2022/01/25 11:06:16;;;;;;;22.63;3.30;;;;;;;;;;5027437;28;20042;-64
2022/01/25 11:08:50;;;;;;;18.23;2.85;;;;;;;;;;5025230;28;20049;-63
2022/01/25 11:11:27;;;;;;;25.30;3.55;;;;;;;;;;5020846;28;20068;-63
2022/01/25 11:14:00;;;;;;;21.35;3.25;;;;;;;;;;5007313;28;20132;-64
2022/01/25 11:16:26;;;;;;;20.33;3.28;;;;;;;;;;5023481;28;20150;-64
2022/01/25 11:18:56;;;;;;;21.10;3.33;;;;;;;;;;5021207;28;20053;-64
2022/01/25 11:21:25;;;;;;;32.28;3.22;;;;;;;;;;5022287;28;20132;-64
2022/01/25 11:23:52;;;;;;;20.10;3.13;;;;;;;;;;5023640;28;20053;-64
2022/01/25 11:26:19;;;;;;;21.20;3.90;;;;;;;;;;5022841;28;20083;-64
2022/01/25 11:28:52;;;;;;;19.05;3.03;;;;;;;;;;5019028;28;20467;-64
2022/01/25 11:31:20;;;;;;;20.50;3.08;;;;;;;;;;5023393;28;20576;-64
2022/01/25 11:33:47;;;;;;;18.08;4.03;;;;;;;;;;5023081;28;20064;-64
2022/01/25 11:36:15;;;;;;;31.15;3.70;;;;;;;;;;5023774;28;20133;-64
2022/01/25 11:38:41;;;;;;;18.95;3.00;;;;;;;;;;5023468;28;20053;-64
2022/01/25 11:41:09;;;;;;;17.63;3.63;;;;;;;;;;5025399;28;20084;-64
2022/01/25 11:43:41;;;;;;;24.38;3.05;;;;;;;;;;5040536;28;20049;-64
2022/01/25 11:46:07;;;;;;;26.90;4.32;;;;;;;;;;5041012;28;20080;-64
2022/01/25 11:48:36;;;;;;;10.77;2.27;;;;;;;;;;5045663;28;20114;-64
2022/01/25 11:51:05;;;;;;;22.10;3.38;;;;;;;;;;5041964;28;20684;-64
2022/01/25 11:53:38;;;;;;;13.05;2.42;;;;;;;;;;5042658;28;20134;-64
2022/01/25 11:56:07;;;;;;;17.23;2.85;;;;;;;;;;5045850;28;20060;-64
2022/01/25 11:58:34;;;;;;;26.02;3.28;;;;;;;;;;5040029;28;20048;-64
2022/01/25 12:01:03;;;;;;;21.52;3.05;;;;;;;;;;5042840;28;20134;-64
2022/01/25 12:03:40;;;;;;;26.02;3.50;;;;;;;;;;5042442;28;20064;-64
2022/01/25 12:06:19;;;;;;;17.30;2.67;;;;;;;;;;5039419;28;20044;-64
2022/01/25 12:11:31;;;;;;;13.57;2.75;;;;;;;;;;5042898;28;20128;-64
2022/01/25 12:14:11;;;;;;;18.13;2.70;;;;;;;;;;5043698;28;20053;-64
2022/01/25 12:16:43;;;;;;;17.55;2.70;;;;;;;;;;5038782;28;20056;-64
2022/01/25 12:19:11;;;;;;;11.30;2.20;;;;;;;;;;5039926;28;20060;-64
2022/01/25 12:21:48;;;;;;;12.43;2.40;;;;;;;;;;5040456;28;20136;-64
2022/01/25 12:24:23;;;;;;;10.63;2.08;;;;;;;;;;5043719;28;20053;-64
2022/01/25 12:27:01;;;;;;;11.60;2.33;;;;;;;;;;5042613;28;20149;-63
2022/01/25 12:29:39;;;;;;;14.32;2.63;;;;;;;;;;5039940;28;20764;-64
2022/01/25 12:32:16;;;;;;;11.55;2.03;;;;;;;;;;5041303;28;20056;-64
2022/01/25 12:35:15;;;;;;;10.57;1.90;;;;;;;;;;5043465;28;20487;-64
2022/01/25 12:37:45;;;;;;;11.80;2.63;;;;;;;;;;5036216;28;20053;-65
2022/01/25 12:40:25;;;;;;;13.30;2.40;;;;;;;;;;5040214;28;20079;-64
2022/01/25 12:42:59;;;;;;;10.57;2.35;;;;;;;;;;5038727;28;20090;-64
2022/01/25 12:45:28;;;;;;;12.80;2.45;;;;;;;;;;5039270;28;20076;-65
2022/01/25 12:47:58;;;;;;;10.82;2.65;;;;;;;;;;5044045;28;20179;-64
2022/01/25 12:50:25;;;;;;;10.20;2.50;;;;;;;;;;5042251;28;20053;-64
2022/01/25 12:52:57;;;;;;;12.93;3.30;;;;;;;;;;5043017;28;20087;-64
2022/01/25 12:55:25;;;;;;;5.93;2.03;;;;;;;;;;5044263;28;20140;-64
2022/01/25 12:57:53;;;;;;;11.10;1.92;;;;;;;;;;5045205;28;20055;-64
2022/01/25 13:00:20;;;;;;;8.93;2.10;;;;;;;;;;5046150;28;20047;-64
2022/01/25 13:02:46;;;;;;;8.98;2.33;;;;;;;;;;5046417;28;20132;-64
2022/01/25 13:05:16;;;;;;;10.23;2.65;;;;;;;;;;5050546;28;20137;-64
2022/01/25 13:07:49;;;;;;;10.02;2.10;;;;;;;;;;5047927;28;20124;-64
2022/01/25 13:10:26;;;;;;;13.00;2.10;;;;;;;;;;5044681;28;20749;-64
2022/01/25 13:12:57;;;;;;;11.38;2.75;;;;;;;;;;5045270;28;20558;-64
2022/01/25 13:15:50;;;;;;;8.68;2.50;;;;;;;;;;5045767;28;20091;-64
2022/01/25 13:18:20;;;;;;;11.52;2.75;;;;;;;;;;5046141;28;20049;-64
2022/01/25 13:20:57;;;;;;;13.10;2.63;;;;;;;;;;5041115;28;20046;-64
2022/01/25 13:23:24;;;;;;;8.77;2.90;;;;;;;;;;5046068;28;20053;-64
2022/01/25 13:31:23;;;;;;;11.18;2.10;;;;;;;;;;5044346;28;20045;-64
2022/01/25 13:33:53;;;;;;;12.07;2.38;;;;;;;;;;5043748;28;20056;-64
2022/01/25 13:36:20;;;;;;;8.93;2.30;;;;;;;;;;5048515;28;20049;-64
2022/01/25 13:38:49;;;;;;;12.23;2.30;;;;;;;;;;5044382;28;20077;-64
2022/01/25 13:41:21;;;;;;;9.13;2.17;;;;;;;;;;5033303;28;20360;-65
2022/01/25 13:46:25;;;;;;;7.35;2.45;;;;;;;;;;5044707;28;20063;-64
2022/01/25 13:48:54;;;;;;;10.00;2.22;;;;;;;;;;5043443;28;20053;-64
2022/01/25 13:51:22;;;;;;;14.20;2.50;;;;;;;;;;5044264;28;20060;-64
2022/01/25 13:53:52;;;;;;;10.82;2.42;;;;;;;;;;5045844;28;20084;-64
2022/01/25 13:56:19;;;;;;;11.13;2.13;;;;;;;;;;5045183;28;20125;-64
2022/01/25 13:58:47;;;;;;;16.73;3.17;;;;;;;;;;5047086;28;20053;-64
2022/01/25 14:01:22;;;;;;;7.30;2.35;;;;;;;;;;5044471;28;20061;-64
2022/01/25 14:03:53;;;;;;;12.55;2.30;;;;;;;;;;5040327;28;20053;-64
2022/01/25 14:06:20;;;;;;;18.55;3.38;;;;;;;;;;5046777;28;20124;-64
2022/01/25 14:09:00;;;;;;;12.68;2.80;;;;;;;;;;5043965;28;20049;-64
2022/01/25 14:21:38;;;;;;;14.75;2.60;;;;;;;;;;5042256;28;20124;-64
2022/01/25 14:22:54;;;;;;;10.98;2.20;;;;;;;;;;5045095;28;20152;-64
2022/01/25 14:25:33;;;;;;;11.75;2.33;;;;;;;;;;5042436;28;20156;-64
2022/01/25 14:28:06;;;;;;;10.32;2.58;;;;;;;;;;5046487;28;20045;-65
2022/01/25 14:30:40;;;;;;;11.75;2.55;;;;;;;;;;5043875;28;20061;-64
2022/01/25 14:33:12;;;;;;;10.15;2.17;;;;;;;;;;5043396;28;20167;-65
2022/01/25 14:35:46;;;;;;;8.38;2.30;;;;;;;;;;5042656;28;20807;-64
2022/01/25 14:38:15;;;;;;;8.82;2.33;;;;;;;;;;5042499;28;20132;-64
2022/01/25 14:40:53;;;;;;;14.63;2.67;;;;;;;;;;5041671;28;20103;-64
2022/01/25 14:43:23;;;;;;;10.35;2.28;;;;;;;;;;5044458;28;20057;-65
2022/01/25 14:45:57;;;;;;;11.55;2.33;;;;;;;;;;5041773;28;20499;-64
2022/01/25 14:48:24;;;;;;;15.27;2.38;;;;;;;;;;5042346;28;20050;-64
2022/01/25 14:50:57;;;;;;;8.23;2.10;;;;;;;;;;5042698;28;20112;-64
2022/01/25 14:53:23;;;;;;;7.45;2.22;;;;;;;;;;5043242;28;20156;-64
2022/01/25 14:55:51;;;;;;;12.00;2.70;;;;;;;;;;5041677;28;20055;-64
2022/01/25 15:00:52;;;;;;;9.68;2.70;;;;;;;;;;5044009;28;20575;-64
2022/01/25 15:03:20;;;;;;;6.60;2.38;;;;;;;;;;5043474;28;20119;-64
2022/01/25 15:05:48;;;;;;;13.88;3.10;;;;;;;;;;5043852;28;20587;-64
2022/01/25 15:08:22;;;;;;;10.38;2.20;;;;;;;;;;5042098;28;20055;-64
2022/01/25 15:10:48;;;;;;;8.50;2.38;;;;;;;;;;5039662;28;20384;-64
2022/01/25 15:13:26;;;;;;;11.05;2.63;;;;;;;;;;5043560;28;20103;-64
2022/01/25 15:15:59;;;;;;;16.80;2.42;;;;;;;;;;5041433;28;20049;-64
2022/01/25 15:18:34;;;;;;;11.80;2.38;;;;;;;;;;5040841;28;20053;-64
2022/01/25 15:21:08;;;;;;;7.97;2.25;;;;;;;;;;5043919;28;20067;-64
2022/01/25 15:23:35;;;;;;;10.63;2.63;;;;;;;;;;5045912;28;20140;-64
2022/01/25 15:26:04;;;;;;;13.18;2.35;;;;;;;;;;5042051;28;20132;-64
2022/01/25 15:28:49;;;;;;;14.00;2.42;;;;;;;;;;5044276;28;20077;-65
2022/01/25 15:31:17;;;;;;;9.48;1.90;;;;;;;;;;5042105;28;20099;-64
2022/01/25 15:33:46;;;;;;;10.02;2.28;;;;;;;;;;5040693;28;20052;-64
2022/01/25 15:36:14;;;;;;;12.20;2.25;;;;;;;;;;5041045;28;20104;-64
2022/01/25 15:38:41;;;;;;;10.93;2.08;;;;;;;;;;5040045;28;20136;-64
2022/01/25 15:41:10;;;;;;;15.73;2.85;;;;;;;;;;5039246;28;20569;-65
2022/01/25 15:43:46;;;;;;;9.48;1.92;;;;;;;;;;5044565;28;20080;-65
2022/01/25 15:46:21;;;;;;;11.52;2.72;;;;;;;;;;5041553;28;20045;-64
2022/01/25 15:48:48;;;;;;;11.20;2.28;;;;;;;;;;5042337;28;20080;-64
2022/01/25 15:51:14;;;;;;;11.18;2.33;;;;;;;;;;5044158;28;20175;-65
2022/01/25 15:53:41;;;;;;;12.45;2.35;;;;;;;;;;5044075;28;20103;-65
2022/01/25 15:56:07;;;;;;;13.15;2.50;;;;;;;;;;5040726;28;20113;-64
2022/01/25 15:58:34;;;;;;;11.88;2.38;;;;;;;;;;5042657;28;20085;-64
2022/01/25 16:01:01;;;;;;;11.07;2.70;;;;;;;;;;5041402;28;20543;-64
2022/01/25 16:03:32;;;;;;;11.13;2.13;;;;;;;;;;5045474;28;20128;-64
2022/01/25 16:05:59;;;;;;;12.30;2.15;;;;;;;;;;5041918;28;20428;-65
2022/01/25 16:08:25;;;;;;;13.82;2.53;;;;;;;;;;5043472;28;20564;-64
2022/01/25 16:10:52;;;;;;;14.70;2.42;;;;;;;;;;5044526;28;20049;-64
2022/01/25 16:13:18;;;;;;;14.20;2.15;;;;;;;;;;5047358;28;20136;-64
2022/01/25 16:15:45;;;;;;;15.15;2.47;;;;;;;;;;5045431;28;20055;-64
2022/01/25 16:18:11;;;;;;;9.90;2.33;;;;;;;;;;5045524;28;20053;-64
2022/01/25 16:20:42;;;;;;;16.67;2.50;;;;;;;;;;5040144;28;20125;-64
2022/01/25 16:23:10;;;;;;;11.27;2.85;;;;;;;;;;5044276;28;20144;-64
2022/01/25 16:25:37;;;;;;;12.27;2.53;;;;;;;;;;5040101;28;20140;-64
2022/01/25 16:28:11;;;;;;;11.48;2.30;;;;;;;;;;5040390;28;20124;-65
2022/01/25 16:30:37;;;;;;;9.07;1.52;;;;;;;;;;5040206;28;20994;-64
2022/01/25 16:33:04;;;;;;;8.87;2.33;;;;;;;;;;5038236;28;20128;-65
2022/01/25 16:35:31;;;;;;;15.60;4.90;;;;;;;;;;5040640;28;20701;-65
2022/01/25 16:37:57;;;;;;;12.90;2.75;;;;;;;;;;5040271;28;20076;-64